Time;durP1;ratioP1;P1;durP2;ratioP2;P2;SDS_P1;SDS_P2;PMS_P1;PMS_P2;Temp;Humidity;BMP_temperature;BMP_pressure;BME280_temperature;BME280_humidity;BME280_pressure;Samples;Min_cycle;Max_cycle;Signal;HPM_P1;HPM_P2
2022/06/19 00:00:08;;;;;;;7.78;5.10;;;;;;;32.66;28.46;100324.31;5027510;28;20041;-70
2022/06/19 00:02:36;;;;;;;9.50;4.72;;;;;;;32.58;28.41;100317.19;5025610;28;20084;-69
2022/06/19 00:05:03;;;;;;;7.53;5.00;;;;;;;32.53;28.21;100317.13;5030855;28;20561;-71
2022/06/19 00:07:30;;;;;;;6.13;4.90;;;;;;;32.49;28.66;100315.94;5026357;28;20059;-70
2022/06/19 00:09:57;;;;;;;6.68;4.85;;;;;;;32.45;28.58;100307.16;5012425;28;20544;-70
2022/06/19 00:12:24;;;;;;;7.80;4.85;;;;;;;32.42;28.89;100302.06;5028582;28;20380;-69
2022/06/19 00:14:50;;;;;;;10.10;5.25;;;;;;;32.39;28.72;100302.56;5029215;28;20434;-71
2022/06/19 00:17:17;;;;;;;7.95;5.00;;;;;;;32.38;29.00;100303.69;5031486;28;20486;-70
2022/06/19 00:19:44;;;;;;;10.18;5.20;;;;;;;32.36;29.19;100299.44;5023776;28;20057;-71
2022/06/19 00:22:11;;;;;;;6.40;4.50;;;;;;;32.34;28.72;100293.22;5026962;28;20049;-70
2022/06/19 00:24:38;;;;;;;6.93;4.63;;;;;;;32.30;28.83;100289.22;5029570;28;20049;-70
2022/06/19 00:27:05;;;;;;;7.47;5.20;;;;;;;32.31;29.24;100285.31;5030582;28;20052;-71
2022/06/19 00:29:32;;;;;;;6.63;5.40;;;;;;;32.27;29.06;100278.53;5021085;28;20137;-70
2022/06/19 00:31:59;;;;;;;8.25;5.38;;;;;;;32.24;29.21;100257.41;5028058;28;20587;-71
2022/06/19 00:34:26;;;;;;;8.20;5.07;;;;;;;32.23;29.11;100260.47;5026459;28;20053;-69
2022/06/19 00:36:52;;;;;;;6.60;4.80;;;;;;;32.22;29.21;100262.44;5027775;28;20124;-70
2022/06/19 00:39:20;;;;;;;6.22;5.13;;;;;;;32.21;29.01;100259.88;5026704;28;20513;-71
2022/06/19 00:41:47;;;;;;;7.03;5.07;;;;;;;32.18;29.24;100258.44;5028796;28;20144;-70
2022/06/19 00:44:15;;;;;;;7.07;4.90;;;;;;;32.18;29.30;100264.06;5028306;28;20179;-71
2022/06/19 00:46:47;;;;;;;6.63;4.97;;;;;;;32.19;29.55;100257.34;5027394;28;20049;-71
2022/06/19 00:49:16;;;;;;;;;;;;;;;31.87;29.40;100259.91;5028361;28;20033;-74
2022/06/19 00:51:43;;;;;;;8.13;4.97;;;;;;;32.10;29.05;100247.63;5030835;28;20012;-70
2022/06/19 00:54:15;;;;;;;9.43;4.82;;;;;;;32.14;29.81;100243.19;5032923;28;20443;-70
2022/06/19 00:56:42;;;;;;;;;;;;;;;31.83;29.79;100229.78;5025495;28;20084;-70
2022/06/19 00:59:11;;;;;;;7.32;4.63;;;;;;;32.08;29.65;100230.16;5022877;28;20424;-70
2022/06/19 01:01:39;;;;;;;6.95;4.95;;;;;;;32.07;29.64;100220.03;5029383;28;20081;-70
2022/06/19 01:04:17;;;;;;;8.50;5.28;;;;;;;32.06;29.79;100223.97;5028165;28;20140;-69
2022/06/19 01:06:43;;;;;;;6.25;4.90;;;;;;;32.04;29.83;100215.78;5029182;28;20140;-69
2022/06/19 01:09:10;;;;;;;10.20;5.45;;;;;;;32.02;29.71;100203.97;5022407;28;20124;-70
2022/06/19 01:11:38;;;;;;;7.15;4.82;;;;;;;32.01;29.63;100195.81;5026887;28;20082;-70
2022/06/19 01:14:13;;;;;;;6.68;5.22;;;;;;;32.01;29.83;100196.66;5010823;28;20144;-70
2022/06/19 01:16:40;;;;;;;8.07;5.00;;;;;;;31.96;29.81;100201.34;5026413;28;20499;-70
2022/06/19 01:19:09;;;;;;;9.50;5.30;;;;;;;31.97;30.14;100192.66;5027528;28;20525;-71
2022/06/19 01:21:35;;;;;;;8.15;5.63;;;;;;;31.95;29.96;100188.44;5022214;28;20135;-71
2022/06/19 01:24:13;;;;;;;7.57;5.28;;;;;;;31.97;30.30;100191.81;5027110;28;20088;-71
2022/06/19 01:26:45;;;;;;;8.32;5.20;;;;;;;31.92;30.12;100186.97;5035417;28;20306;-71
2022/06/19 01:29:16;;;;;;;9.02;5.03;;;;;;;31.88;30.29;100190.53;5021686;28;20579;-71
2022/06/19 01:31:49;;;;;;;11.32;5.75;;;;;;;31.88;30.33;100182.13;5026408;28;20132;-70
2022/06/19 01:34:28;;;;;;;8.90;5.30;;;;;;;31.84;30.36;100179.00;5026515;28;20060;-71
2022/06/19 01:37:20;;;;;;;8.25;5.47;;;;;;;31.81;30.51;100175.84;5005054;28;20049;-70
2022/06/19 01:39:52;;;;;;;7.53;4.95;;;;;;;31.74;30.33;100171.28;5029741;28;20048;-71
2022/06/19 01:42:18;;;;;;;7.78;5.10;;;;;;;31.70;30.19;100166.44;5024311;28;20140;-72
2022/06/19 01:44:46;;;;;;;7.80;5.13;;;;;;;31.69;30.35;100173.16;5027840;28;20459;-70
2022/06/19 01:47:14;;;;;;;8.70;5.65;;;;;;;31.67;30.37;100169.75;5026964;28;20107;-71
2022/06/19 01:49:46;;;;;;;6.57;5.25;;;;;;;31.65;30.51;100171.97;5025871;28;20267;-70
2022/06/19 01:52:13;;;;;;;6.22;5.03;;;;;;;31.59;30.78;100170.16;5031564;28;20059;-70
2022/06/19 01:54:44;;;;;;;9.52;4.95;;;;;;;31.62;30.80;100169.69;5007319;28;20454;-71
2022/06/19 01:57:11;;;;;;;7.28;4.97;;;;;;;31.53;30.75;100158.00;5029121;28;20077;-71
2022/06/19 01:59:42;;;;;;;7.47;5.65;;;;;;;31.55;30.71;100149.31;5019290;28;20530;-72
2022/06/19 02:02:12;;;;;;;8.80;5.57;;;;;;;31.52;30.77;100142.28;5027110;28;20128;-71
2022/06/19 02:04:39;;;;;;;9.93;5.47;;;;;;;31.45;30.94;100135.16;5009385;28;20132;-71
2022/06/19 02:07:12;;;;;;;10.63;5.43;;;;;;;31.42;30.89;100136.50;5010002;28;20143;-71
2022/06/19 02:09:39;;;;;;;6.97;5.20;;;;;;;31.32;30.43;100128.75;5027450;28;20446;-70
2022/06/19 02:12:06;;;;;;;9.45;5.18;;;;;;;31.26;30.51;100114.91;5026462;28;20060;-71
2022/06/19 02:14:33;;;;;;;8.52;5.10;;;;;;;31.22;30.72;100116.53;5018125;28;20195;-70
2022/06/19 02:17:08;;;;;;;7.57;4.80;;;;;;;31.18;30.70;100132.19;5020275;28;20437;-71
2022/06/19 02:19:34;;;;;;;8.27;4.80;;;;;;;31.09;30.63;100136.50;5033722;28;20405;-70
2022/06/19 02:22:01;;;;;;;9.13;5.07;;;;;;;31.04;30.74;100147.63;5031140;28;20572;-71
2022/06/19 02:24:29;;;;;;;9.38;5.15;;;;;;;31.02;30.84;100147.84;5022495;28;20144;-71
2022/06/19 02:26:56;;;;;;;8.55;4.72;;;;;;;30.99;30.80;100143.59;5019691;28;20067;-71
2022/06/19 02:29:23;;;;;;;8.90;4.60;;;;;;;30.97;30.79;100133.72;5025205;28;20124;-70
2022/06/19 02:31:53;;;;;;;6.97;4.80;;;;;;;30.98;30.87;100136.28;5029282;28;20135;-71
2022/06/19 02:34:31;;;;;;;7.32;4.50;;;;;;;30.98;31.14;100132.63;5022485;28;20049;-71
2022/06/19 02:37:01;;;;;;;7.93;4.53;;;;;;;30.95;30.87;100149.97;5027346;28;20474;-71
2022/06/19 02:39:42;;;;;;;6.65;5.13;;;;;;;30.96;30.98;100176.91;5029063;28;20064;-70
2022/06/19 02:42:22;;;;;;;7.68;4.53;;;;;;;30.96;31.24;100179.72;5025947;28;20045;-71
2022/06/19 02:44:51;;;;;;;9.35;4.82;;;;;;;30.93;31.17;100189.47;5032376;28;20045;-70
2022/06/19 02:47:18;;;;;;;6.45;5.10;;;;;;;30.91;31.39;100205.69;5031405;28;20049;-70
2022/06/19 02:49:45;;;;;;;6.88;4.45;;;;;;;30.91;31.66;100227.28;5026940;28;20045;-70
2022/06/19 02:52:12;;;;;;;5.35;4.30;;;;;;;30.90;31.73;100211.53;5022740;28;20140;-69
2022/06/19 02:54:40;;;;;;;5.07;3.53;;;;;;;30.86;31.69;100183.19;5024346;28;20545;-70
2022/06/19 02:57:09;;;;;;;5.30;3.38;;;;;;;30.84;31.61;100157.34;5026055;28;20128;-70
2022/06/19 02:59:36;;;;;;;4.72;2.95;;;;;;;30.79;31.87;100185.28;5027901;28;20562;-70
2022/06/19 03:02:03;;;;;;;5.53;2.97;;;;;;;30.77;31.89;100178.22;5027067;28;20068;-70
2022/06/19 03:04:41;;;;;;;4.35;2.67;;;;;;;30.75;32.15;100184.09;5027597;28;20049;-70
2022/06/19 03:07:08;;;;;;;3.78;2.65;;;;;;;30.67;31.93;100208.84;5073244;23;20136;-82
2022/06/19 03:09:34;;;;;;;4.95;2.72;;;;;;;30.63;31.86;100206.56;5035140;28;20096;-82
2022/06/19 03:12:02;;;;;;;4.15;2.50;;;;;;;30.61;32.09;100191.94;5029568;28;20045;-82
2022/06/19 03:14:29;;;;;;;3.42;2.30;;;;;;;30.55;32.12;100209.78;5030916;28;20049;-82
2022/06/19 03:16:56;;;;;;;3.95;2.40;;;;;;;30.50;31.97;100204.00;5037795;28;20129;-82
2022/06/19 03:19:22;;;;;;;4.13;2.58;;;;;;;30.48;32.37;100211.81;5036269;28;20047;-82
2022/06/19 03:21:49;;;;;;;3.83;2.50;;;;;;;30.45;32.30;100219.88;5044200;28;20073;-80
2022/06/19 03:24:16;;;;;;;3.58;2.13;;;;;;;30.41;32.15;100233.50;5057672;28;20049;-81
2022/06/19 03:26:42;;;;;;;3.58;2.60;;;;;;;30.38;32.28;100239.63;5032555;28;20180;-80
2022/06/19 03:29:10;;;;;;;3.55;2.55;;;;;;;30.37;32.04;100245.47;5042843;28;20530;-80
2022/06/19 03:31:37;;;;;;;3.25;2.20;;;;;;;30.37;32.32;100279.09;5037462;28;20077;-80
2022/06/19 03:34:06;;;;;;;3.83;2.25;;;;;;;30.39;32.22;100271.28;5056311;28;20052;-79
2022/06/19 03:36:32;;;;;;;3.88;2.20;;;;;;;30.36;32.25;100274.56;5035433;28;20602;-79
2022/06/19 03:38:59;;;;;;;3.28;1.95;;;;;;;30.36;31.63;100292.22;5038561;28;20041;-79
2022/06/19 03:41:25;;;;;;;4.30;2.30;;;;;;;30.34;32.06;100269.22;5033656;28;20060;-80
2022/06/19 03:43:52;;;;;;;4.00;2.03;;;;;;;30.34;31.45;100282.38;5052370;28;20132;-80
2022/06/19 03:46:19;;;;;;;3.50;2.30;;;;;;;30.33;31.25;100298.31;5060569;28;20052;-80
2022/06/19 03:48:50;;;;;;;3.38;1.90;;;;;;;30.32;31.07;100282.59;5034722;28;20056;-80
2022/06/19 03:51:22;;;;;;;4.47;2.13;;;;;;;30.29;31.21;100299.06;5033125;28;20072;-79
2022/06/19 03:53:54;;;;;;;4.35;2.30;;;;;;;30.28;31.04;100301.00;5041054;28;20074;-80
2022/06/19 03:56:24;;;;;;;3.60;2.10;;;;;;;30.24;31.04;100334.25;5041317;28;20055;-80
2022/06/19 03:58:52;;;;;;;3.45;1.90;;;;;;;30.23;30.80;100328.88;5047560;28;20051;-81
2022/06/19 04:01:20;;;;;;;3.50;1.90;;;;;;;30.23;30.50;100359.69;5035665;28;20579;-80
2022/06/19 04:03:48;;;;;;;4.30;1.77;;;;;;;30.20;30.31;100368.59;5054387;28;20052;-80
2022/06/19 04:06:17;;;;;;;3.22;1.90;;;;;;;30.16;30.72;100357.00;5056003;28;20056;-80
2022/06/19 04:08:46;;;;;;;4.20;1.67;;;;;;;30.12;30.19;100371.75;5036796;28;20055;-80
2022/06/19 04:11:15;;;;;;;3.67;1.55;;;;;;;30.11;30.07;100365.31;5052657;28;20051;-80
2022/06/19 04:13:42;;;;;;;3.38;1.80;;;;;;;30.07;29.71;100394.00;5036699;28;20059;-80
2022/06/19 04:16:13;;;;;;;3.65;1.67;;;;;;;30.03;29.81;100413.25;5048371;28;20426;-80
2022/06/19 04:18:40;;;;;;;3.67;1.30;;;;;;;29.93;29.90;100426.09;5053984;28;20052;-79
2022/06/19 04:21:15;;;;;;;3.58;1.80;;;;;;;29.94;29.41;100427.84;5033690;28;20055;-80
2022/06/19 04:23:43;;;;;;;4.22;1.70;;;;;;;29.83;29.25;100410.72;5052515;28;20099;-80
2022/06/19 04:26:11;;;;;;;3.30;1.65;;;;;;;29.77;29.22;100416.44;5046046;28;20041;-80
2022/06/19 04:28:38;;;;;;;5.28;1.77;;;;;;;29.71;29.22;100426.66;5035400;28;20052;-80
2022/06/19 04:31:07;;;;;;;4.72;1.70;;;;;;;29.66;28.76;100409.69;5031558;28;20041;-80
2022/06/19 04:33:38;;;;;;;3.28;1.38;;;;;;;29.60;28.63;100416.25;5048621;28;20063;-80
2022/06/19 04:36:09;;;;;;;2.70;1.30;;;;;;;29.52;28.74;100419.38;5059555;28;20140;-80
2022/06/19 04:38:37;;;;;;;4.60;1.50;;;;;;;29.46;28.40;100410.00;5039841;28;20049;-80
2022/06/19 04:41:04;;;;;;;6.00;1.88;;;;;;;29.37;27.95;100393.78;5042831;28;20045;-80
2022/06/19 04:43:31;;;;;;;3.28;1.60;;;;;;;29.25;28.23;100385.28;5037936;28;20044;-79
2022/06/19 04:46:02;;;;;;;5.05;1.40;;;;;;;29.12;27.77;100380.75;5056227;28;20498;-79
2022/06/19 04:48:29;;;;;;;4.18;1.33;;;;;;;28.99;27.83;100399.66;5034310;28;20091;-80
2022/06/19 04:50:56;;;;;;;4.70;1.92;;;;;;;28.87;27.80;100404.28;5051869;28;20037;-78
2022/06/19 04:53:22;;;;;;;3.17;1.40;;;;;;;28.75;27.99;100396.63;5057348;28;20438;-79
2022/06/19 04:55:49;;;;;;;3.30;1.38;;;;;;;28.63;27.97;100404.09;5053819;28;20049;-79
2022/06/19 04:58:15;;;;;;;3.78;1.38;;;;;;;28.55;27.95;100395.16;5033549;28;20053;-78
2022/06/19 05:00:42;;;;;;;3.70;1.58;;;;;;;28.45;28.18;100392.03;5050361;28;20037;-79
2022/06/19 05:03:09;;;;;;;2.70;1.05;;;;;;;28.39;28.09;100382.66;5051250;28;20530;-79
2022/06/19 05:05:35;;;;;;;4.53;1.40;;;;;;;28.34;27.90;100379.69;5036323;28;20135;-79
2022/06/19 05:08:02;;;;;;;3.60;1.52;;;;;;;28.28;28.08;100398.22;5034899;28;20048;-80
2022/06/19 05:10:28;;;;;;;5.40;1.83;;;;;;;28.25;27.78;100439.72;5034191;28;20444;-79
2022/06/19 05:12:56;;;;;;;4.35;1.73;;;;;;;28.24;28.10;100477.94;5052675;28;20274;-79
2022/06/19 05:15:23;;;;;;;4.28;1.50;;;;;;;28.23;28.39;100465.06;5033034;28;22033;-80
2022/06/19 05:17:50;;;;;;;3.80;1.52;;;;;;;28.26;27.95;100436.66;5036106;28;20049;-80
2022/06/19 05:20:17;;;;;;;4.55;1.63;;;;;;;28.29;27.95;100436.22;5038782;28;20415;-80
2022/06/19 05:22:43;;;;;;;5.40;1.50;;;;;;;28.30;27.84;100459.41;5047983;28;20041;-81
2022/06/19 05:25:11;;;;;;;5.15;1.50;;;;;;;28.35;27.87;100479.97;5042299;28;20442;-80
2022/06/19 05:27:40;;;;;;;4.70;1.70;;;;;;;28.41;27.51;100469.00;5042212;28;20503;-80
2022/06/19 05:30:10;;;;;;;5.95;2.00;;;;;;;28.48;27.78;100437.13;5034382;28;20041;-80
2022/06/19 05:32:36;;;;;;;4.63;1.55;;;;;;;28.55;27.83;100437.91;5064021;28;20075;-80
2022/06/19 05:35:03;;;;;;;8.18;1.85;;;;;;;28.64;27.46;100453.31;5037932;28;20067;-80
2022/06/19 05:37:30;;;;;;;5.32;1.75;;;;;;;28.71;27.49;100442.91;5034021;28;20527;-80
2022/06/19 05:39:57;;;;;;;6.22;1.55;;;;;;;28.80;27.09;100448.22;5052060;28;20063;-80
2022/06/19 05:42:24;;;;;;;5.13;1.95;;;;;;;28.84;27.19;100439.13;5060898;28;20052;-80
2022/06/19 05:44:50;;;;;;;4.38;1.95;;;;;;;28.89;26.64;100427.28;5035684;28;20136;-80
2022/06/19 05:47:17;;;;;;;5.65;2.30;;;;;;;28.88;26.28;100420.84;5051976;28;20098;-80
2022/06/19 05:49:44;;;;;;;6.10;2.38;;;;;;;28.81;26.10;100428.44;5047165;28;20041;-80
2022/06/19 05:52:17;;;;;;;5.70;2.00;;;;;;;28.80;25.34;100425.88;5035880;28;20080;-80
2022/06/19 05:54:44;;;;;;;5.65;1.88;;;;;;;28.68;25.93;100406.19;5046425;28;20049;-79
2022/06/19 05:57:11;;;;;;;4.03;1.63;;;;;;;28.59;25.93;100397.25;5035651;28;20049;-79
2022/06/19 05:59:37;;;;;;;7.18;2.00;;;;;;;28.47;25.91;100389.88;5032077;28;20051;-79
2022/06/19 06:02:05;;;;;;;6.25;2.17;;;;;;;28.39;26.28;100393.81;5052686;28;20055;-80
2022/06/19 06:04:32;;;;;;;4.70;1.75;;;;;;;28.30;26.13;100368.13;5054782;28;20109;-80
2022/06/19 06:06:58;;;;;;;6.03;2.63;;;;;;;28.12;26.01;100364.41;5059600;28;20454;-79
2022/06/19 06:09:25;;;;;;;6.63;2.25;;;;;;;27.99;26.34;100346.72;5032255;28;20045;-79
2022/06/19 06:11:51;;;;;;;5.20;1.88;;;;;;;27.86;26.30;100349.59;5033905;28;20051;-79
2022/06/19 06:14:18;;;;;;;7.50;2.22;;;;;;;27.75;26.42;100338.34;5051834;28;20052;-79
2022/06/19 06:16:44;;;;;;;4.53;1.92;;;;;;;27.66;26.81;100340.56;5033018;28;20059;-79
2022/06/19 06:19:11;;;;;;;5.30;1.73;;;;;;;27.59;27.13;100350.91;5049620;28;20055;-79
2022/06/19 06:21:37;;;;;;;7.40;1.90;;;;;;;27.55;27.09;100367.22;5028941;28;20041;-79
2022/06/19 06:24:04;;;;;;;5.95;1.50;;;;;;;27.53;27.74;100377.75;5055108;28;20124;-79
2022/06/19 06:26:32;;;;;;;5.78;1.70;;;;;;;27.56;27.70;100366.16;5054131;28;20041;-78
2022/06/19 06:28:59;;;;;;;5.95;1.80;;;;;;;27.63;27.62;100355.81;5050587;28;20055;-79
2022/06/19 06:31:26;;;;;;;5.93;1.70;;;;;;;27.68;27.81;100331.94;5027322;28;20124;-79
2022/06/19 06:33:56;;;;;;;6.18;2.10;;;;;;;27.74;27.88;100322.69;5035765;28;20052;-79
2022/06/19 06:36:23;;;;;;;7.75;2.38;;;;;;;27.80;27.98;100313.41;5027418;28;20538;-79
2022/06/19 06:38:50;;;;;;;4.53;1.70;;;;;;;27.85;27.76;100311.63;5037805;28;20063;-79
2022/06/19 06:41:16;;;;;;;4.32;1.50;;;;;;;27.93;27.91;100358.75;5043900;28;20059;-80
2022/06/19 06:43:45;;;;;;;5.32;1.90;;;;;;;28.08;27.73;100385.50;5049839;28;20139;-81
2022/06/19 06:46:15;;;;;;;5.93;1.67;;;;;;;28.19;28.21;100388.41;5041341;28;20518;-80
2022/06/19 06:48:42;;;;;;;6.18;1.80;;;;;;;28.30;28.07;100398.00;5056385;28;20049;-80
2022/06/19 06:51:10;;;;;;;6.38;2.17;;;;;;;28.46;27.83;100403.00;5052540;28;20406;-80
2022/06/19 06:53:37;;;;;;;4.32;1.83;;;;;;;28.59;28.20;100399.19;5035933;28;20430;-80
2022/06/19 06:56:05;;;;;;;4.95;1.67;;;;;;;28.72;27.74;100402.72;5061933;28;20159;-81
2022/06/19 06:58:32;;;;;;;6.30;1.73;;;;;;;28.85;28.23;100418.50;5049043;28;20827;-81
2022/06/19 07:01:06;;;;;;;5.82;1.75;;;;;;;29.03;28.01;100454.84;5048224;28;20479;-81
2022/06/19 07:03:33;;;;;;;4.30;1.58;;;;;;;29.11;27.68;100450.88;5034022;28;20462;-82
2022/06/19 07:06:00;;;;;;;4.60;1.77;;;;;;;29.23;27.40;100488.16;5054671;28;20056;-81
2022/06/19 07:08:27;;;;;;;6.05;2.00;;;;;;;29.34;27.61;100501.34;5052842;28;20069;-80
2022/06/19 07:10:53;;;;;;;5.07;2.00;;;;;;;29.44;27.20;100520.41;5035587;28;20119;-81
2022/06/19 07:13:20;;;;;;;5.57;1.88;;;;;;;29.54;27.54;100545.91;5030051;28;20333;-82
2022/06/19 07:15:47;;;;;;;4.97;1.88;;;;;;;29.63;27.11;100566.88;5034056;28;20053;-80
2022/06/19 07:18:17;;;;;;;5.38;1.70;;;;;;;29.74;27.22;100598.81;5034563;28;20458;-84
2022/06/19 07:20:43;;;;;;;5.15;1.80;;;;;;;29.81;27.30;100614.44;5045372;28;20053;-79
2022/06/19 07:23:10;;;;;;;4.85;1.70;;;;;;;29.93;27.20;100656.50;5050204;28;20527;-77
2022/06/19 07:25:37;;;;;;;4.78;1.77;;;;;;;30.02;26.62;100716.72;5055125;28;20052;-80
2022/06/19 07:28:04;;;;;;;9.77;2.40;;;;;;;30.11;26.79;100731.28;5042233;28;20045;-79
2022/06/19 07:30:31;;;;;;;5.22;1.75;;;;;;;30.19;26.46;100722.56;5058212;28;20488;-81
2022/06/19 07:32:57;;;;;;;6.20;1.77;;;;;;;30.25;26.18;100707.63;5034785;28;20515;-81
2022/06/19 07:35:24;;;;;;;4.97;1.88;;;;;;;30.31;25.57;100678.66;5041191;28;20071;-79
2022/06/19 07:37:53;;;;;;;7.75;2.35;;;;;;;30.33;25.34;100724.09;5030040;28;20559;-82
2022/06/19 07:40:21;;;;;;;4.95;1.80;;;;;;;30.36;24.92;100739.59;5026702;28;20045;-80
2022/06/19 07:42:47;;;;;;;4.40;1.65;;;;;;;30.34;25.14;100734.22;5039496;28;20052;-80
2022/06/19 07:45:15;;;;;;;4.07;1.50;;;;;;;30.33;25.34;100712.03;5039582;28;20044;-82
2022/06/19 07:50:28;;;;;;;4.03;1.88;;;;;;;30.30;25.15;100730.19;5050278;28;20069;-80
2022/06/19 07:52:55;;;;;;;5.13;1.55;;;;;;;30.30;24.96;100710.59;5057335;28;20495;-78
2022/06/19 07:55:25;;;;;;;6.88;1.90;;;;;;;30.32;24.94;100679.50;5054963;28;20052;-79
2022/06/19 07:57:52;;;;;;;4.90;1.70;;;;;;;30.31;25.00;100691.84;5055683;28;20072;-79
2022/06/19 08:00:25;;;;;;;7.57;2.25;;;;;;;30.34;24.51;100706.19;5041120;28;20045;-78
2022/06/19 08:02:53;;;;;;;6.50;1.80;;;;;;;30.36;24.94;100689.16;5036642;28;20507;-81
2022/06/19 08:05:22;;;;;;;5.40;1.88;;;;;;;30.37;24.76;100672.13;5037583;28;20063;-78
2022/06/19 08:07:52;;;;;;;6.13;2.05;;;;;;;30.37;24.66;100683.34;5044970;28;20048;-80
2022/06/19 08:10:42;;;;;;;8.20;2.10;;;;;;;30.40;24.37;100685.63;5039306;28;20052;-80
2022/06/19 08:13:14;;;;;;;5.28;1.77;;;;;;;30.44;24.46;100680.44;5051197;28;20561;-82
2022/06/19 08:15:41;;;;;;;5.95;2.00;;;;;;;30.47;24.47;100682.78;5037439;28;20079;-82
2022/06/19 08:18:09;;;;;;;6.82;2.00;;;;;;;30.50;24.45;100685.94;5042061;28;20143;-81
2022/06/19 08:20:36;;;;;;;6.45;1.85;;;;;;;30.53;24.62;100679.91;5059374;28;20117;-81
2022/06/19 08:23:03;;;;;;;5.50;1.80;;;;;;;30.56;24.68;100679.41;5056873;28;20049;-82
2022/06/19 08:25:30;;;;;;;6.05;1.67;;;;;;;30.60;24.46;100686.25;5036782;28;20060;-80
2022/06/19 08:27:57;;;;;;;5.20;1.85;;;;;;;30.64;24.54;100695.88;5044419;28;20140;-80
2022/06/19 08:30:27;;;;;;;5.50;1.58;;;;;;;30.71;24.33;100704.22;5062013;28;20080;-81
2022/06/19 08:33:02;;;;;;;5.93;1.90;;;;;;;30.72;24.88;100705.91;5068381;28;20048;-82
2022/06/19 08:35:31;;;;;;;4.43;1.52;;;;;;;30.79;24.44;100711.44;5073341;28;20056;-80
2022/06/19 08:38:07;;;;;;;4.45;1.73;;;;;;;30.85;24.19;100716.09;5039983;28;20364;-81
2022/06/19 08:40:51;;;;;;;6.07;2.10;;;;;;;30.86;23.85;100713.03;5058641;28;20490;-81
2022/06/19 08:43:17;;;;;;;3.53;1.60;;;;;;;30.88;24.24;100716.47;5050737;28;20128;-80
2022/06/19 08:46:13;;;;;;;5.72;1.80;;;;;;;30.92;24.02;100712.09;5037563;28;20045;-82
2022/06/19 08:49:02;;;;;;;5.22;1.77;;;;;;;30.97;23.91;100709.41;5036127;28;20475;-83
2022/06/19 08:51:36;;;;;;;5.35;1.73;;;;;;;30.99;23.83;100697.94;5061908;28;20108;-80
2022/06/19 08:54:19;;;;;;;5.57;1.40;;;;;;;31.05;23.62;100671.75;5044927;28;20042;-82
2022/06/19 08:57:08;;;;;;;4.05;1.58;;;;;;;31.09;23.80;100659.00;5055735;28;20284;-82
2022/06/19 08:59:56;;;;;;;4.70;1.38;;;;;;;31.14;23.77;100661.06;5040683;28;20128;-81
2022/06/19 09:02:37;;;;;;;5.45;1.60;;;;;;;31.20;23.78;100654.50;5053239;28;20108;-81
2022/06/19 09:08:19;;;;;;;4.72;1.60;;;;;;;31.27;24.04;100641.19;5061533;28;20041;-80
2022/06/19 09:10:55;;;;;;;4.82;1.58;;;;;;;31.38;23.09;100649.59;5065285;28;20075;-81
2022/06/19 09:13:42;;;;;;;6.00;1.73;;;;;;;31.41;23.43;100644.59;5039232;28;20518;-80
2022/06/19 09:16:26;;;;;;;4.85;1.70;;;;;;;31.46;23.39;100658.78;5061999;28;20118;-80
2022/06/19 09:19:12;;;;;;;4.72;2.03;;;;;;;31.50;23.32;100649.63;5048429;28;20132;-82
2022/06/19 09:21:41;;;;;;;6.13;2.00;;;;;;;31.55;23.20;100657.28;5035147;28;20459;-79
2022/06/19 09:24:08;;;;;;;5.57;1.67;;;;;;;31.53;23.31;100657.56;5056245;28;20148;-79
2022/06/19 09:26:41;;;;;;;5.10;1.90;;;;;;;31.58;22.89;100660.47;5065951;28;20566;-79
2022/06/19 09:29:30;;;;;;;5.60;1.92;;;;;;;31.58;23.00;100654.84;5035894;28;20393;-81
2022/06/19 09:32:08;;;;;;;6.90;1.90;;;;;;;31.58;23.32;100654.84;5037770;28;20069;-81
2022/06/19 09:34:55;;;;;;;4.55;1.90;;;;;;;31.56;22.63;100639.34;5037750;28;20060;-80
2022/06/19 09:37:31;;;;;;;5.43;2.28;;;;;;;31.54;22.22;100619.13;5034581;28;20049;-81
2022/06/19 09:40:02;;;;;;;7.40;2.28;;;;;;;31.50;22.56;100629.13;5032592;28;20128;-80
2022/06/19 09:42:35;;;;;;;5.57;2.27;;;;;;;31.42;22.68;100654.75;5055137;28;20071;-82
2022/06/19 09:45:11;;;;;;;5.28;1.80;;;;;;;31.37;22.77;100636.69;5050530;28;20073;-80
2022/06/19 09:47:47;;;;;;;5.40;1.90;;;;;;;31.31;22.71;100611.53;5027145;28;20092;-79
2022/06/19 09:50:38;;;;;;;6.18;1.85;;;;;;;31.21;22.87;100583.28;5035261;28;20407;-79
2022/06/19 09:53:12;;;;;;;5.35;1.83;;;;;;;31.16;22.82;100581.19;5035335;28;20045;-81
2022/06/19 09:55:44;;;;;;;4.88;1.92;;;;;;;31.07;22.98;100582.66;5042455;28;20135;-80
2022/06/19 09:58:16;;;;;;;3.20;1.63;;;;;;;31.04;22.85;100588.72;5054424;28;20041;-80
2022/06/19 10:00:47;;;;;;;5.18;2.10;;;;;;;30.98;22.79;100590.53;5035800;28;20140;-81
2022/06/19 10:03:43;;;;;;;4.57;1.70;;;;;;;30.92;23.13;100587.84;5049960;28;20053;-79
2022/06/19 10:06:17;;;;;;;4.95;1.75;;;;;;;30.88;23.31;100607.13;5062876;28;20410;-81
2022/06/19 10:08:53;;;;;;;5.50;1.80;;;;;;;30.86;23.47;100622.47;5051589;28;20132;-80
2022/06/19 10:11:33;;;;;;;6.68;1.83;;;;;;;30.84;23.53;100619.06;5029381;28;20086;-80
2022/06/19 10:14:10;;;;;;;4.82;1.80;;;;;;;30.80;23.26;100592.59;5054894;28;20040;-80
2022/06/19 10:16:58;;;;;;;5.63;1.80;;;;;;;30.77;23.23;100462.19;5025956;28;20042;-79
2022/06/19 10:19:31;;;;;;;4.53;1.90;;;;;;;30.71;23.86;100341.78;5032963;28;20040;-78
2022/06/19 10:22:16;;;;;;;4.95;2.00;;;;;;;30.62;23.87;100324.50;5050960;28;20050;-79
2022/06/19 10:25:15;;;;;;;6.63;2.20;;;;;;;30.57;24.79;100315.97;5036757;28;20076;-79
2022/06/19 10:28:02;;;;;;;6.00;1.98;;;;;;;30.38;24.42;100336.81;5053445;28;20048;-79
2022/06/19 10:31:07;;;;;;;6.88;2.10;;;;;;;30.21;24.80;100322.69;5047729;28;20117;-79
2022/06/19 10:34:05;;;;;;;6.68;2.58;;;;;;;30.08;25.29;100392.91;5054618;28;20067;-78
2022/06/19 10:37:01;;;;;;;5.13;2.08;;;;;;;29.96;25.20;100470.44;5059735;28;20049;-79
2022/06/19 10:39:51;;;;;;;5.57;1.90;;;;;;;29.83;25.46;100461.13;5053758;28;20132;-80
2022/06/19 10:42:32;;;;;;;6.22;2.30;;;;;;;29.84;25.89;100485.22;5039180;28;20047;-78
2022/06/19 10:45:20;;;;;;;6.03;1.80;;;;;;;29.83;26.20;100471.44;5031685;28;20066;-79
2022/06/19 10:48:11;;;;;;;3.85;1.77;;;;;;;29.81;26.17;100488.47;5034648;28;20136;-79
2022/06/19 10:51:10;;;;;;;6.30;2.22;;;;;;;29.84;26.03;100506.75;5030024;28;20085;-80
2022/06/19 10:53:54;;;;;;;5.68;2.10;;;;;;;29.90;26.07;100509.44;5044691;28;20049;-80
2022/06/19 10:56:36;;;;;;;7.13;2.33;;;;;;;29.96;26.07;100530.09;5062342;28;20052;-79
2022/06/19 10:59:04;;;;;;;5.97;2.03;;;;;;;30.02;26.24;100539.47;5063900;28;20040;-80
2022/06/19 11:04:34;;;;;;;7.85;2.25;;;;;;;30.18;26.42;100559.25;5055374;28;20068;-79
2022/06/19 11:07:08;;;;;;;6.20;2.08;;;;;;;30.29;26.63;100554.81;5036454;28;20063;-80
2022/06/19 11:09:48;;;;;;;6.43;2.28;;;;;;;30.38;26.38;100552.53;5061013;28;20120;-79
2022/06/19 11:12:30;;;;;;;7.40;2.13;;;;;;;30.49;25.80;100554.47;5036614;28;20123;-79
2022/06/19 11:15:00;;;;;;;5.38;1.98;;;;;;;30.55;25.87;100545.16;5034177;28;20089;-80
2022/06/19 11:17:40;;;;;;;7.30;2.80;;;;;;;30.69;25.24;100528.97;5036490;28;20055;-79
2022/06/19 11:20:16;;;;;;;7.22;2.50;;;;;;;30.78;24.81;100519.97;5033468;28;20128;-80
2022/06/19 11:22:47;;;;;;;6.43;2.15;;;;;;;30.86;24.94;100499.97;5051193;28;20129;-79
2022/06/19 11:25:19;;;;;;;6.57;2.22;;;;;;;30.94;24.97;100488.38;5041844;28;20087;-79
2022/06/19 11:27:57;;;;;;;6.85;2.10;;;;;;;30.99;24.67;100482.88;5047551;28;20059;-79
2022/06/19 11:30:31;;;;;;;6.22;2.10;;;;;;;31.04;24.72;100495.34;5036425;28;20541;-78
2022/06/19 11:32:59;;;;;;;6.03;2.20;;;;;;;31.06;24.60;100493.09;5047474;28;20151;-79
2022/06/19 11:35:40;;;;;;;6.72;2.10;;;;;;;31.12;24.86;100515.47;5029487;28;20108;-79
2022/06/19 11:38:08;;;;;;;6.15;2.13;;;;;;;31.12;24.79;100514.63;5031836;28;20049;-79
2022/06/19 11:40:39;;;;;;;6.43;2.13;;;;;;;31.18;24.60;100514.47;5049737;28;20107;-79
2022/06/19 11:43:30;;;;;;;6.68;1.90;;;;;;;31.24;24.49;100546.31;5048265;28;20049;-79
2022/06/19 11:46:15;;;;;;;6.65;2.20;;;;;;;31.25;24.33;100518.00;5035984;28;20049;-78
2022/06/19 11:48:41;;;;;;;6.55;1.98;;;;;;;31.24;24.32;100512.63;5048336;28;20064;-79
2022/06/19 11:51:17;;;;;;;6.05;1.92;;;;;;;31.30;24.87;100543.34;5041551;28;20044;-79
2022/06/19 11:53:51;;;;;;;4.85;2.03;;;;;;;31.31;24.74;100573.13;5031813;28;20055;-79